Time;durP1;ratioP1;P1;durP2;ratioP2;P2;SDS_P1;SDS_P2;PMS_P1;PMS_P2;Temp;Humidity;BMP_temperature;BMP_pressure;BME280_temperature;BME280_humidity;BME280_pressure;Samples;Min_cycle;Max_cycle;Signal;HPM_P1;HPM_P2
2021/12/11 00:00:08;;;;;;;;;9.00;8.00;;;;;;;;5008943;28;45538;-77
2021/12/11 00:02:34;;;;;;;;;3.25;3.25;;;;;;;;5009191;28;45615;-77
2021/12/11 00:05:00;;;;;;;;;8.00;6.00;;;;;;;;5025079;28;45541;-76
2021/12/11 00:07:28;;;;;;;;;8.00;6.50;;;;;;;;5055489;28;45572;-76
2021/12/11 00:10:20;;;;;;;;;10.25;7.00;;;;;;;;5055628;28;48082;-76
2021/12/11 00:12:52;;;;;;;;;5.00;5.00;;;;;;;;5051211;28;45491;-76
2021/12/11 00:15:23;;;;;;;;;10.00;8.00;;;;;;;;5054829;28;45278;-76
2021/12/11 00:17:49;;;;;;;;;5.00;5.00;;;;;;;;5054876;28;45293;-75
2021/12/11 00:20:16;;;;;;;;;9.00;5.50;;;;;;;;5055736;28;46893;-76
2021/12/11 00:22:43;;;;;;;;;5.50;5.50;;;;;;;;5053804;28;45554;-76
2021/12/11 00:25:09;;;;;;;;;6.00;5.00;;;;;;;;5054503;28;45428;-76
2021/12/11 00:27:36;;;;;;;;;31.50;31.25;;;;;;;;5052398;28;45427;-75
2021/12/11 00:30:02;;;;;;;;;22.75;20.50;;;;;;;;5053514;28;46066;-76
2021/12/11 00:32:30;;;;;;;;;18.00;12.00;;;;;;;;5053783;28;45505;-76
2021/12/11 00:34:57;;;;;;;;;6.00;5.00;;;;;;;;5054413;28;45340;-76
2021/12/11 00:37:23;;;;;;;;;8.00;5.50;;;;;;;;5055593;28;45366;-76
2021/12/11 00:40:18;;;;;;;;;7.75;5.00;;;;;;;;5053947;28;46992;-76
2021/12/11 00:42:56;;;;;;;;;7.75;5.25;;;;;;;;5045492;28;45565;-76
2021/12/11 00:45:23;;;;;;;;;6.50;5.75;;;;;;;;5054128;28;45379;-76
2021/12/11 00:47:56;;;;;;;;;7.25;4.75;;;;;;;;5034942;28;45353;-75
2021/12/11 00:50:25;;;;;;;;;5.75;5.75;;;;;;;;5054206;28;47297;-77
2021/12/11 00:53:10;;;;;;;;;4.25;3.75;;;;;;;;5037429;28;45449;-76
2021/12/11 00:55:39;;;;;;;;;5.00;5.00;;;;;;;;5045465;28;45344;-76
2021/12/11 00:58:04;;;;;;;;;3.75;2.75;;;;;;;;5058598;28;45411;-75
2021/12/11 01:00:33;;;;;;;;;7.50;4.50;;;;;;;;5055241;28;46027;-76
2021/12/11 01:02:58;;;;;;;;;7.25;4.00;;;;;;;;5056557;28;45482;-76
2021/12/11 01:05:23;;;;;;;;;3.75;3.25;;;;;;;;5054423;28;45405;-76
2021/12/11 01:07:49;;;;;;;;;5.75;4.00;;;;;;;;5054088;28;45339;-76
2021/12/11 01:10:22;;;;;;;;;3.25;3.00;;;;;;;;5055745;28;47037;-76
2021/12/11 01:12:54;;;;;;;;;5.25;5.25;;;;;;;;5052019;28;45418;-76
2021/12/11 01:15:24;;;;;;;;;5.25;4.00;;;;;;;;5052311;28;45404;-77
2021/12/11 01:18:10;;;;;;;;;7.00;4.00;;;;;;;;5053571;28;45410;-77
2021/12/11 01:21:03;;;;;;;;;5.00;4.00;;;;;;;;5052768;28;45558;-77
2021/12/11 01:25:58;;;;;;;;;7.25;4.25;;;;;;;;5053617;28;45234;-75
2021/12/11 01:28:24;;;;;;;;;4.50;3.50;;;;;;;;5055078;28;45427;-77
2021/12/11 01:30:49;;;;;;;;;3.50;3.00;;;;;;;;5053463;28;46422;-77
2021/12/11 01:33:14;;;;;;;;;3.25;3.25;;;;;;;;5053074;28;45296;-76
2021/12/11 01:35:40;;;;;;;;;7.75;3.00;;;;;;;;5053182;28;45276;-76
2021/12/11 01:38:13;;;;;;;;;3.25;2.25;;;;;;;;5051939;28;45578;-77
2021/12/11 01:40:39;;;;;;;;;4.25;4.25;;;;;;;;5053216;28;47244;-76
2021/12/11 01:43:06;;;;;;;;;8.50;4.00;;;;;;;;5054958;28;45481;-76
2021/12/11 01:45:32;;;;;;;;;4.25;4.00;;;;;;;;5053060;28;45456;-76
2021/12/11 01:47:57;;;;;;;;;4.75;4.75;;;;;;;;5051630;28;45353;-76
2021/12/11 01:50:26;;;;;;;;;8.00;3.75;;;;;;;;5052808;28;45415;-77
2021/12/11 01:52:57;;;;;;;;;6.25;2.00;;;;;;;;5037418;28;45286;-76
2021/12/11 01:55:44;;;;;;;;;2.00;0.75;;;;;;;;5051324;28;45428;-76
2021/12/11 01:58:11;;;;;;;;;6.75;5.50;;;;;;;;5053729;28;45374;-75
2021/12/11 02:00:38;;;;;;;;;10.75;8.00;;;;;;;;5052653;28;46076;-76
2021/12/11 02:03:07;;;;;;;;;7.75;7.75;;;;;;;;5052936;28;45392;-76
2021/12/11 02:05:35;;;;;;;;;15.00;10.50;;;;;;;;5052581;28;45506;-75
2021/12/11 02:08:03;;;;;;;;;9.00;8.25;;;;;;;;5052970;28;45520;-76
2021/12/11 02:10:33;;;;;;;;;5.25;4.00;;;;;;;;5056605;28;47201;-76
2021/12/11 02:12:59;;;;;;;;;5.25;4.75;;;;;;;;5058005;28;45468;-76
2021/12/11 02:15:31;;;;;;;;;7.00;7.00;;;;;;;;5054868;28;45396;-76
2021/12/11 02:18:00;;;;;;;;;6.75;3.25;;;;;;;;5050406;28;45481;-76
2021/12/11 02:20:31;;;;;;;;;10.75;9.00;;;;;;;;5054718;28;46123;-76
2021/12/11 02:22:57;;;;;;;;;6.00;4.25;;;;;;;;5056407;28;45479;-77
2021/12/11 02:25:24;;;;;;;;;4.50;4.50;;;;;;;;5058222;28;45415;-77
2021/12/11 02:27:54;;;;;;;;;9.75;6.00;;;;;;;;5055487;28;45353;-76
2021/12/11 02:30:25;;;;;;;;;4.50;3.00;;;;;;;;5037105;28;46269;-76
2021/12/11 02:32:55;;;;;;;;;7.00;6.00;;;;;;;;5056104;28;45250;-77
2021/12/11 02:35:32;;;;;;;;;4.75;4.00;;;;;;;;5056448;28;45599;-77
2021/12/11 02:38:12;;;;;;;;;2.25;2.00;;;;;;;;5039401;28;45520;-76
2021/12/11 02:40:55;;;;;;;;;4.00;4.00;;;;;;;;5056025;28;46096;-77
2021/12/11 02:43:26;;;;;;;;;7.00;5.25;;;;;;;;5054021;28;45449;-75
2021/12/11 02:45:59;;;;;;;;;8.50;5.25;;;;;;;;5055587;28;45563;-74
2021/12/11 02:48:30;;;;;;;;;5.00;5.00;;;;;;;;5055393;28;45402;-75
2021/12/11 02:51:04;;;;;;;;;9.00;4.50;;;;;;;;5058780;28;46292;-75
2021/12/11 02:53:31;;;;;;;;;10.00;6.00;;;;;;;;5059828;28;45273;-75
2021/12/11 02:56:00;;;;;;;;;7.50;3.00;;;;;;;;5057695;28;45377;-75
2021/12/11 02:58:30;;;;;;;;;7.75;5.50;;;;;;;;5039417;28;45424;-76
2021/12/11 03:01:05;;;;;;;;;7.50;5.50;;;;;;;;5056491;28;46724;-76
2021/12/11 03:03:35;;;;;;;;;6.25;3.00;;;;;;;;5058992;28;45229;-74
2021/12/11 03:06:24;;;;;;;;;5.75;5.75;;;;;;;;5059135;28;45566;-76
2021/12/11 03:08:47;;;;;;;;;3.00;3.00;;;;;;;;5056505;28;45517;-76
2021/12/11 03:11:16;;;;;;;;;6.25;5.00;;;;;;;;5056101;28;45420;-75
2021/12/11 03:13:44;;;;;;;;;7.25;4.00;;;;;;;;5057739;28;45291;-75
2021/12/11 03:16:09;;;;;;;;;7.25;3.00;;;;;;;;5060959;28;45549;-76
2021/12/11 03:18:35;;;;;;;;;5.25;5.25;;;;;;;;5057757;28;45452;-76
2021/12/11 03:21:01;;;;;;;;;3.00;3.00;;;;;;;;5056277;28;46752;-75
2021/12/11 03:23:26;;;;;;;;;7.75;4.00;;;;;;;;5055964;28;45467;-76
2021/12/11 03:25:52;;;;;;;;;8.00;5.75;;;;;;;;5055778;28;45374;-75
2021/12/11 03:28:18;;;;;;;;;7.00;6.00;;;;;;;;5053671;28;45266;-75
2021/12/11 03:30:50;;;;;;;;;7.00;7.00;;;;;;;;5057367;28;45394;-76
2021/12/11 03:33:17;;;;;;;;;8.00;6.00;;;;;;;;5058802;28;45399;-76
2021/12/11 03:35:43;;;;;;;;;3.25;3.25;;;;;;;;5058934;28;45404;-75
2021/12/11 03:38:09;;;;;;;;;6.75;3.00;;;;;;;;5060087;28;45455;-75
2021/12/11 03:40:35;;;;;;;;;11.75;4.25;;;;;;;;5058969;28;46276;-76
2021/12/11 03:43:01;;;;;;;;;4.00;4.00;;;;;;;;5060923;28;45336;-76
2021/12/11 03:45:29;;;;;;;;;4.00;3.50;;;;;;;;5056458;28;45494;-76
2021/12/11 03:47:57;;;;;;;;;14.25;8.50;;;;;;;;5056986;28;45397;-76
2021/12/11 03:50:23;;;;;;;;;13.50;7.25;;;;;;;;5056059;28;46078;-76
2021/12/11 03:52:49;;;;;;;;;5.25;5.25;;;;;;;;5055321;28;45281;-76
2021/12/11 03:55:17;;;;;;;;;7.00;3.00;;;;;;;;5057616;28;45311;-76
2021/12/11 03:57:44;;;;;;;;;8.50;7.25;;;;;;;;5035700;28;45682;-76
2021/12/11 04:00:11;;;;;;;;;5.75;4.00;;;;;;;;5054735;28;46471;-76
2021/12/11 04:02:37;;;;;;;;;3.50;3.50;;;;;;;;5056368;28;45597;-76
2021/12/11 04:05:06;;;;;;;;;1.75;1.75;;;;;;;;5039532;28;45451;-75
2021/12/11 04:07:35;;;;;;;;;3.25;2.75;;;;;;;;5041520;28;45250;-76
2021/12/11 04:10:01;;;;;;;;;21.25;19.75;;;;;;;;5057552;28;46217;-76
2021/12/11 04:12:27;;;;;;;;;6.00;4.50;;;;;;;;5054305;28;45422;-75
2021/12/11 04:14:53;;;;;;;;;4.00;3.00;;;;;;;;5052605;28;45233;-75
2021/12/11 04:17:22;;;;;;;;;2.50;2.00;;;;;;;;5054744;28;45575;-77
2021/12/11 04:19:49;;;;;;;;;2.00;2.00;;;;;;;;5054309;28;47832;-76
2021/12/11 04:22:15;;;;;;;;;4.00;4.00;;;;;;;;5056072;28;45541;-76
2021/12/11 04:24:42;;;;;;;;;9.25;3.75;;;;;;;;5054029;28;45494;-77
2021/12/11 04:27:08;;;;;;;;;2.75;2.75;;;;;;;;5054041;28;45539;-77
2021/12/11 04:29:33;;;;;;;;;4.25;2.00;;;;;;;;5053948;28;45327;-76
2021/12/11 04:32:01;;;;;;;;;6.00;4.00;;;;;;;;5035730;28;45718;-77
2021/12/11 04:34:26;;;;;;;;;6.75;4.50;;;;;;;;5055996;28;45359;-76
2021/12/11 04:36:56;;;;;;;;;3.00;3.00;;;;;;;;5054894;28;45269;-77
2021/12/11 04:39:23;;;;;;;;;3.25;3.00;;;;;;;;5054027;28;46102;-77
2021/12/11 04:42:01;;;;;;;;;3.00;3.00;;;;;;;;5053657;28;45467;-77
2021/12/11 04:44:34;;;;;;;;;7.75;4.00;;;;;;;;5056398;28;45218;-76
2021/12/11 04:46:59;;;;;;;;;7.50;4.50;;;;;;;;5058297;28;45502;-77
2021/12/11 04:49:35;;;;;;;;;6.50;3.00;;;;;;;;5058872;28;45967;-76
2021/12/11 04:52:08;;;;;;;;;6.00;4.00;;;;;;;;5058855;28;45381;-76
2021/12/11 04:54:52;;;;;;;;;3.75;2.75;;;;;;;;5055994;28;45472;-76
2021/12/11 05:00:14;;;;;;;;;7.00;4.00;;;;;;;;5048271;28;45237;-76
2021/12/11 05:05:26;;;;;;;;;4.75;4.75;;;;;;;;5054761;28;45352;-78
2021/12/11 05:10:32;;;;;;;;;7.25;5.75;;;;;;;;5055122;28;45328;-77
2021/12/11 05:12:58;;;;;;;;;5.50;4.50;;;;;;;;5054550;28;45496;-76
2021/12/11 05:15:25;;;;;;;;;7.00;6.00;;;;;;;;5052979;28;45740;-74
2021/12/11 05:17:51;;;;;;;;;13.75;12.25;;;;;;;;5053312;28;45220;-75
2021/12/11 05:20:18;;;;;;;;;9.00;9.00;;;;;;;;5052089;28;45520;-76
2021/12/11 05:22:43;;;;;;;;;7.50;4.75;;;;;;;;5053276;28;45246;-77
2021/12/11 05:25:09;;;;;;;;;3.00;3.00;;;;;;;;5055466;28;45312;-76
2021/12/11 05:27:35;;;;;;;;;3.00;3.00;;;;;;;;5052933;28;45273;-77
2021/12/11 05:30:01;;;;;;;;;3.25;3.25;;;;;;;;5053068;28;46348;-77
2021/12/11 05:32:27;;;;;;;;;8.50;6.25;;;;;;;;5052057;28;45346;-75
2021/12/11 05:34:53;;;;;;;;;8.50;7.50;;;;;;;;5053454;28;45529;-75
2021/12/11 05:37:19;;;;;;;;;9.50;4.00;;;;;;;;5051298;28;45466;-77
2021/12/11 05:39:44;;;;;;;;;6.25;5.00;;;;;;;;5053119;28;45469;-77
2021/12/11 05:42:10;;;;;;;;;6.50;6.00;;;;;;;;5053541;28;45332;-77
2021/12/11 05:44:35;;;;;;;;;6.00;5.50;;;;;;;;5039321;28;45380;-77
2021/12/11 05:47:02;;;;;;;;;6.00;5.00;;;;;;;;5056547;28;45340;-77
2021/12/11 05:49:29;;;;;;;;;7.50;3.00;;;;;;;;5054623;28;46193;-75
2021/12/11 05:51:54;;;;;;;;;7.00;6.25;;;;;;;;5053876;28;45454;-78
2021/12/11 05:54:23;;;;;;;;;6.75;2.75;;;;;;;;5052941;28;45636;-75
2021/12/11 05:56:49;;;;;;;;;3.50;3.50;;;;;;;;5035091;28;45471;-77
2021/12/11 05:59:16;;;;;;;;;4.00;3.00;;;;;;;;5051926;28;46295;-76
2021/12/11 06:01:43;;;;;;;;;7.00;6.00;;;;;;;;5053065;28;45400;-77
2021/12/11 06:04:11;;;;;;;;;8.00;8.00;;;;;;;;5049207;28;45328;-77
2021/12/11 06:06:37;;;;;;;;;10.25;8.50;;;;;;;;5053010;28;45303;-75
2021/12/11 06:09:04;;;;;;;;;10.25;7.50;;;;;;;;5052844;28;46952;-77
2021/12/11 06:11:29;;;;;;;;;11.25;8.50;;;;;;;;5051316;28;45220;-76
2021/12/11 06:13:55;;;;;;;;;9.25;7.00;;;;;;;;5052777;28;45300;-77
2021/12/11 06:16:20;;;;;;;;;6.75;6.75;;;;;;;;5055245;28;45241;-77
2021/12/11 06:18:46;;;;;;;;;6.25;3.25;;;;;;;;5051310;28;46383;-77
2021/12/11 06:21:11;;;;;;;;;7.50;4.00;;;;;;;;5052048;28;45522;-76
2021/12/11 06:23:36;;;;;;;;;7.50;4.00;;;;;;;;5052602;28;45482;-77
2021/12/11 06:26:02;;;;;;;;;5.75;4.00;;;;;;;;5051963;28;45364;-76
2021/12/11 06:28:28;;;;;;;;;3.25;3.25;;;;;;;;5053886;28;46446;-76
2021/12/11 06:30:57;;;;;;;;;6.25;5.00;;;;;;;;5033899;28;45300;-77
2021/12/11 06:33:23;;;;;;;;;6.25;4.00;;;;;;;;5053834;28;45474;-76
2021/12/11 06:35:57;;;;;;;;;3.75;3.75;;;;;;;;5056715;28;45517;-77
2021/12/11 06:38:23;;;;;;;;;4.00;3.00;;;;;;;;5057156;28;45262;-76
2021/12/11 06:40:49;;;;;;;;;6.00;4.00;;;;;;;;5055583;28;45257;-76
2021/12/11 06:43:15;;;;;;;;;9.75;4.50;;;;;;;;5056760;28;45331;-76
2021/12/11 06:45:40;;;;;;;;;3.75;3.50;;;;;;;;5052638;28;45481;-75
2021/12/11 06:48:06;;;;;;;;;3.00;3.00;;;;;;;;5051861;28;45476;-77
2021/12/11 06:50:31;;;;;;;;;3.75;3.25;;;;;;;;5050634;28;45459;-76
2021/12/11 06:52:58;;;;;;;;;5.00;3.25;;;;;;;;5052958;28;45467;-77
2021/12/11 06:55:24;;;;;;;;;7.00;4.00;;;;;;;;5054889;28;45364;-78
2021/12/11 06:57:49;;;;;;;;;4.50;4.50;;;;;;;;5054243;28;47136;-77
2021/12/11 07:00:16;;;;;;;;;7.00;6.00;;;;;;;;5053999;28;45521;-76
2021/12/11 07:02:41;;;;;;;;;6.50;6.50;;;;;;;;5058874;28;45355;-76
2021/12/11 07:05:08;;;;;;;;;8.25;6.00;;;;;;;;5056377;28;45460;-75
2021/12/11 07:07:35;;;;;;;;;6.00;6.00;;;;;;;;5057990;28;45595;-77
2021/12/11 07:10:03;;;;;;;;;32.75;29.25;;;;;;;;5055273;28;45572;-76
2021/12/11 07:12:28;;;;;;;;;48.25;38.00;;;;;;;;5055399;28;45361;-77
2021/12/11 07:14:53;;;;;;;;;9.00;9.00;;;;;;;;5055414;28;45468;-77
2021/12/11 07:17:22;;;;;;;;;9.00;9.00;;;;;;;;5055594;28;46293;-76
2021/12/11 07:19:48;;;;;;;;;12.50;10.75;;;;;;;;5055329;28;45408;-76
2021/12/11 07:22:14;;;;;;;;;12.50;7.25;;;;;;;;5057007;28;45537;-77
2021/12/11 07:24:42;;;;;;;;;9.00;9.00;;;;;;;;5058717;28;45318;-77
2021/12/11 07:27:08;;;;;;;;;10.50;7.25;;;;;;;;5061025;28;46219;-77
2021/12/11 07:29:35;;;;;;;;;5.25;4.25;;;;;;;;5056031;28;45382;-77
2021/12/11 07:32:01;;;;;;;;;6.00;6.00;;;;;;;;5054845;28;45329;-77
2021/12/11 07:34:26;;;;;;;;;7.50;4.50;;;;;;;;5056322;28;45543;-77
2021/12/11 07:36:51;;;;;;;;;6.75;4.00;;;;;;;;5054919;28;45325;-76
2021/12/11 07:39:18;;;;;;;;;7.25;2.50;;;;;;;;5034362;28;45508;-76
2021/12/11 07:41:46;;;;;;;;;6.75;6.75;;;;;;;;5054799;28;45411;-77
2021/12/11 07:44:11;;;;;;;;;4.00;3.00;;;;;;;;5055250;28;45432;-74
2021/12/11 07:46:36;;;;;;;;;11.25;8.75;;;;;;;;5055289;28;46416;-78
2021/12/11 07:49:03;;;;;;;;;13.75;9.75;;;;;;;;5056552;28;45446;-77
2021/12/11 07:51:30;;;;;;;;;7.50;5.25;;;;;;;;5054519;28;45530;-77
2021/12/11 07:53:55;;;;;;;;;5.75;5.00;;;;;;;;5054672;28;45387;-78
2021/12/11 07:56:21;;;;;;;;;4.00;2.75;;;;;;;;5052987;28;47110;-75
2021/12/11 07:58:48;;;;;;;;;6.50;6.50;;;;;;;;5053804;28;45432;-74
2021/12/11 08:01:13;;;;;;;;;9.50;7.50;;;;;;;;5056107;28;45264;-76
2021/12/11 08:03:40;;;;;;;;;11.00;10.00;;;;;;;;5055208;28;45443;-78
2021/12/11 08:06:07;;;;;;;;;5.25;4.25;;;;;;;;5054166;28;45330;-77
2021/12/11 08:08:32;;;;;;;;;9.00;7.00;;;;;;;;5051353;28;45304;-76
2021/12/11 08:10:59;;;;;;;;;12.50;10.50;;;;;;;;5053689;28;45255;-76
2021/12/11 08:13:24;;;;;;;;;10.00;8.75;;;;;;;;5055473;28;45403;-75
2021/12/11 08:15:50;;;;;;;;;4.50;4.50;;;;;;;;5057582;28;46430;-75
2021/12/11 08:18:17;;;;;;;;;7.50;6.25;;;;;;;;5046252;28;45530;-78
2021/12/11 08:20:44;;;;;;;;;3.00;3.00;;;;;;;;5047322;28;45328;-79
2021/12/11 08:23:11;;;;;;;;;5.00;3.75;;;;;;;;5056182;28;45375;-77
2021/12/11 08:25:37;;;;;;;;;8.50;8.00;;;;;;;;5056421;28;46389;-78
2021/12/11 08:28:03;;;;;;;;;5.00;5.00;;;;;;;;5055042;28;45326;-79
2021/12/11 08:30:29;;;;;;;;;6.75;6.75;;;;;;;;5055732;28;45498;-79
2021/12/11 08:32:55;;;;;;;;;11.00;10.00;;;;;;;;5060460;28;45456;-78
2021/12/11 08:35:20;;;;;;;;;2.50;2.00;;;;;;;;5067183;28;46262;-79
2021/12/11 08:37:47;;;;;;;;;5.25;4.00;;;;;;;;5065765;28;45312;-78
2021/12/11 08:40:17;;;;;;;;;9.00;8.25;;;;;;;;5058681;28;45371;-79
2021/12/11 08:42:43;;;;;;;;;7.25;7.00;;;;;;;;5036432;28;45476;-77
2021/12/11 08:45:11;;;;;;;;;11.75;11.00;;;;;;;;5052575;28;46226;-78
2021/12/11 08:47:39;;;;;;;;;5.00;5.00;;;;;;;;5054974;28;45578;-77
2021/12/11 08:50:05;;;;;;;;;6.25;5.00;;;;;;;;5052317;28;45188;-77
2021/12/11 08:52:33;;;;;;;;;7.25;6.00;;;;;;;;5053901;28;45407;-78
2021/12/11 08:54:58;;;;;;;;;8.25;6.50;;;;;;;;5053922;28;46075;-78
2021/12/11 08:57:27;;;;;;;;;8.00;5.75;;;;;;;;5055017;28;47124;-79
2021/12/11 08:59:55;;;;;;;;;3.50;3.00;;;;;;;;5056557;28;45277;-79
2021/12/11 09:02:25;;;;;;;;;10.75;8.75;;;;;;;;5056805;28;45468;-80
2021/12/11 09:04:55;;;;;;;;;16.00;10.00;;;;;;;;5044460;28;46663;-78
2021/12/11 09:07:35;;;;;;;;;5.25;5.00;;;;;;;;5058485;28;45453;-80
2021/12/11 09:10:04;;;;;;;;;4.75;4.75;;;;;;;;5055223;28;45523;-79
2021/12/11 09:12:32;;;;;;;;;5.25;4.00;;;;;;;;5052255;28;45521;-79
2021/12/11 09:15:01;;;;;;;;;4.25;4.00;;;;;;;;5052091;28;46656;-78
2021/12/11 09:17:26;;;;;;;;;6.75;5.75;;;;;;;;5052017;28;45490;-78
2021/12/11 09:19:55;;;;;;;;;5.00;5.00;;;;;;;;5051758;28;45358;-76
2021/12/11 09:22:24;;;;;;;;;6.25;5.75;;;;;;;;5051594;28;45448;-76
2021/12/11 09:24:55;;;;;;;;;8.75;6.00;;;;;;;;5043927;28;47013;-75
2021/12/11 09:27:23;;;;;;;;;5.25;4.00;;;;;;;;5046954;28;45509;-77
2021/12/11 09:29:52;;;;;;;;;6.00;5.00;;;;;;;;5050955;28;46756;-77
2021/12/11 09:32:21;;;;;;;;;5.00;5.00;;;;;;;;5051393;28;45476;-78
2021/12/11 09:34:48;;;;;;;;;4.50;4.50;;;;;;;;5051618;28;45642;-79
2021/12/11 09:37:14;;;;;;;;;3.50;3.50;;;;;;;;5055168;28;45438;-78
2021/12/11 09:39:42;;;;;;;;;8.00;4.75;;;;;;;;5053508;28;45610;-78
2021/12/11 09:42:08;;;;;;;;;3.50;3.50;;;;;;;;5052166;28;45363;-78
2021/12/11 09:44:39;;;;;;;;;5.00;3.75;;;;;;;;5033226;28;46307;-75
2021/12/11 09:47:10;;;;;;;;;10.00;7.00;;;;;;;;5051316;28;45598;-74
2021/12/11 09:49:39;;;;;;;;;6.00;6.00;;;;;;;;5051500;28;45374;-73
2021/12/11 09:52:16;;;;;;;;;9.50;6.00;;;;;;;;5052105;28;45776;-77
2021/12/11 09:54:43;;;;;;;;;9.25;7.00;;;;;;;;5053155;28;47467;-74
2021/12/11 09:57:13;;;;;;;;;11.25;9.50;;;;;;;;5051532;28;45454;-76
2021/12/11 09:59:38;;;;;;;;;6.75;5.00;;;;;;;;5052157;28;49160;-76
2021/12/11 10:02:07;;;;;;;;;15.25;8.25;;;;;;;;5051536;28;45413;-76
2021/12/11 10:04:36;;;;;;;;;6.75;4.25;;;;;;;;5052555;28;47159;-74
2021/12/11 10:09:37;;;;;;;;;5.00;5.00;;;;;;;;5049575;28;45630;-77
2021/12/11 10:12:07;;;;;;;;;12.00;8.25;;;;;;;;5051300;28;45566;-76
2021/12/11 10:14:35;;;;;;;;;7.50;6.25;;;;;;;;5051323;28;45550;-76
2021/12/11 10:17:02;;;;;;;;;8.75;6.75;;;;;;;;5051391;28;45767;-75
2021/12/11 10:19:29;;;;;;;;;8.75;8.75;;;;;;;;5052904;28;45373;-73
2021/12/11 10:22:04;;;;;;;;;10.75;8.75;;;;;;;;5040092;28;45610;-77
2021/12/11 10:24:32;;;;;;;;;10.75;7.00;;;;;;;;5030539;28;46003;-77
2021/12/11 10:26:59;;;;;;;;;5.75;5.00;;;;;;;;5033549;28;45540;-76
2021/12/11 10:29:24;;;;;;;;;6.25;6.00;;;;;;;;5036565;28;45348;-77
2021/12/11 10:31:53;;;;;;;;;6.25;6.25;;;;;;;;5035640;28;45644;-77
2021/12/11 10:34:20;;;;;;;;;7.25;7.00;;;;;;;;5038919;28;46170;-77
2021/12/11 10:36:52;;;;;;;;;6.00;6.00;;;;;;;;5035566;28;45547;-75
2021/12/11 10:39:20;;;;;;;;;8.50;6.00;;;;;;;;5030640;28;45383;-75
2021/12/11 10:41:45;;;;;;;;;5.00;5.00;;;;;;;;5035621;28;45625;-78
2021/12/11 10:44:24;;;;;;;;;4.00;4.00;;;;;;;;5034950;28;46362;-76
2021/12/11 10:46:56;;;;;;;;;5.50;4.00;;;;;;;;5037184;28;45782;-77
2021/12/11 10:49:22;;;;;;;;;7.00;7.00;;;;;;;;5034884;28;45464;-77
2021/12/11 10:51:52;;;;;;;;;7.00;7.00;;;;;;;;5036318;28;45331;-76
2021/12/11 10:54:18;;;;;;;;;5.00;3.00;;;;;;;;5015240;28;46129;-75
2021/12/11 10:56:45;;;;;;;;;8.50;8.50;;;;;;;;5033616;28;45402;-77
2021/12/11 10:59:21;;;;;;;;;8.50;7.75;;;;;;;;5035578;28;45455;-77
2021/12/11 11:01:58;;;;;;;;;11.00;10.00;;;;;;;;5035481;28;45531;-76
2021/12/11 11:04:50;;;;;;;;;8.00;8.00;;;;;;;;5032677;28;47091;-77
2021/12/11 11:07:15;;;;;;;;;10.25;7.75;;;;;;;;5033370;28;45459;-78
2021/12/11 11:09:41;;;;;;;;;6.75;6.25;;;;;;;;5035179;28;45304;-76
2021/12/11 11:12:09;;;;;;;;;7.75;7.00;;;;;;;;5035622;28;45507;-76
2021/12/11 11:14:34;;;;;;;;;7.25;7.00;;;;;;;;5034928;28;45523;-78
2021/12/11 11:17:06;;;;;;;;;5.25;3.75;;;;;;;;5034367;28;45334;-79
2021/12/11 11:19:34;;;;;;;;;6.50;4.00;;;;;;;;5021357;28;45494;-79
2021/12/11 11:22:01;;;;;;;;;9.75;8.50;;;;;;;;5049216;28;45372;-78
2021/12/11 11:24:29;;;;;;;;;8.00;7.00;;;;;;;;5056392;28;45377;-78
2021/12/11 11:26:54;;;;;;;;;6.00;4.00;;;;;;;;5052735;28;45649;-77
2021/12/11 11:29:21;;;;;;;;;7.00;5.33;;;;;;;;5053876;28;45880;-77
2021/12/11 11:31:48;;;;;;;;;9.33;8.00;;;;;;;;5054494;28;45551;-80
2021/12/11 11:34:15;;;;;;;;;6.25;4.75;;;;;;;;5056307;28;47337;-80
2021/12/11 11:36:41;;;;;;;;;16.00;13.00;;;;;;;;5054619;28;45304;-79
2021/12/11 11:39:09;;;;;;;;;16.50;13.75;;;;;;;;5059248;28;45470;-82
2021/12/11 11:41:37;;;;;;;;;8.50;7.00;;;;;;;;5064940;28;45219;-79
2021/12/11 11:44:03;;;;;;;;;5.25;4.25;;;;;;;;5058195;28;45341;-79
2021/12/11 11:46:29;;;;;;;;;6.00;5.25;;;;;;;;5058081;28;45341;-82
2021/12/11 11:48:56;;;;;;;;;5.50;5.00;;;;;;;;5051943;28;45375;-80
2021/12/11 11:51:33;;;;;;;;;6.75;5.00;;;;;;;;5057456;28;45269;-79
2021/12/11 11:53:59;;;;;;;;;9.00;8.75;;;;;;;;5056002;28;45360;-80
2021/12/11 11:56:26;;;;;;;;;8.25;7.25;;;;;;;;5055567;28;45414;-80
2021/12/11 11:58:53;;;;;;;;;9.25;7.75;;;;;;;;5039316;28;45323;-81
2021/12/11 12:01:24;;;;;;;;;5.00;4.00;;;;;;;;5058542;28;45690;-80
2021/12/11 12:03:50;;;;;;;;;9.00;7.25;;;;;;;;5054547;28;46405;-79
2021/12/11 12:06:22;;;;;;;;;7.25;6.25;;;;;;;;5055527;28;45583;-79
2021/12/11 12:08:48;;;;;;;;;8.00;6.75;;;;;;;;5057214;28;45298;-82
2021/12/11 12:11:13;;;;;;;;;5.75;5.00;;;;;;;;5055131;28;45453;-81
2021/12/11 12:13:39;;;;;;;;;5.75;5.25;;;;;;;;5056391;28;45503;-82
2021/12/11 12:16:06;;;;;;;;;11.00;8.00;;;;;;;;5037453;28;45433;-81
2021/12/11 12:18:32;;;;;;;;;5.75;5.75;;;;;;;;5054810;28;45430;-81
2021/12/11 12:20:58;;;;;;;;;14.25;12.75;;;;;;;;5053434;28;45451;-81
2021/12/11 12:23:24;;;;;;;;;8.00;5.75;;;;;;;;5062285;28;45198;-80
2021/12/11 12:25:51;;;;;;;;;8.50;5.75;;;;;;;;5066605;28;44924;-80
2021/12/11 12:28:18;;;;;;;;;7.25;6.75;;;;;;;;5059068;28;45249;-79
2021/12/11 12:30:55;;;;;;;;;10.00;8.25;;;;;;;;5056543;28;45415;-82
2021/12/11 12:33:21;;;;;;;;;7.25;6.75;;;;;;;;5054209;28;46399;-80
2021/12/11 12:35:47;;;;;;;;;10.25;6.25;;;;;;;;5057397;28;45384;-80
2021/12/11 12:38:13;;;;;;;;;9.50;7.75;;;;;;;;5060623;28;45308;-80
2021/12/11 12:40:42;;;;;;;;;7.75;7.25;;;;;;;;5059099;28;45380;-79
2021/12/11 12:43:12;;;;;;;;;9.25;6.75;;;;;;;;5055556;28;46177;-80
2021/12/11 12:45:40;;;;;;;;;8.50;7.00;;;;;;;;5054584;28;45564;-81
2021/12/11 12:48:07;;;;;;;;;6.75;5.25;;;;;;;;5048844;28;45375;-81
2021/12/11 12:50:42;;;;;;;;;10.00;8.00;;;;;;;;5054157;28;45498;-81
2021/12/11 12:53:07;;;;;;;;;10.25;7.00;;;;;;;;5053445;28;46846;-81
2021/12/11 12:55:39;;;;;;;;;6.25;5.25;;;;;;;;5055993;28;45363;-82
2021/12/11 12:58:07;;;;;;;;;7.25;5.75;;;;;;;;5053802;28;45434;-80
2021/12/11 13:00:39;;;;;;;;;8.50;8.50;;;;;;;;5054741;28;45520;-80
2021/12/11 13:03:08;;;;;;;;;9.00;6.50;;;;;;;;5056013;28;47542;-83
2021/12/11 13:05:36;;;;;;;;;6.75;6.75;;;;;;;;5062062;28;45280;-83
2021/12/11 13:08:08;;;;;;;;;9.00;7.25;;;;;;;;5048988;28;45377;-82
2021/12/11 13:10:40;;;;;;;;;6.50;4.25;;;;;;;;5061542;28;45310;-80
2021/12/11 13:13:07;;;;;;;;;7.75;6.00;;;;;;;;5057939;28;45353;-81
2021/12/11 13:15:36;;;;;;;;;9.75;8.75;;;;;;;;5048465;28;45221;-80
2021/12/11 13:18:05;;;;;;;;;8.00;7.00;;;;;;;;5053302;28;45539;-76
2021/12/11 13:20:36;;;;;;;;;9.00;6.00;;;;;;;;5050417;28;45229;-77
2021/12/11 13:23:04;;;;;;;;;12.00;11.00;;;;;;;;5049640;28;46950;-77
2021/12/11 13:25:44;;;;;;;;;9.75;9.75;;;;;;;;5053348;28;45338;-77
2021/12/11 13:28:12;;;;;;;;;6.50;6.50;;;;;;;;5053574;28;45439;-77
2021/12/11 13:30:47;;;;;;;;;10.75;8.00;;;;;;;;5053469;28;45492;-77
2021/12/11 13:33:13;;;;;;;;;5.00;3.00;;;;;;;;5033067;28;47652;-78
2021/12/11 13:35:42;;;;;;;;;10.25;5.75;;;;;;;;5043469;28;45457;-78
2021/12/11 13:38:09;;;;;;;;;7.00;6.75;;;;;;;;5051705;28;45411;-79
2021/12/11 13:40:35;;;;;;;;;8.25;8.00;;;;;;;;5034608;28;45637;-79
2021/12/11 13:43:00;;;;;;;;;8.00;7.00;;;;;;;;5035727;28;46815;-78
2021/12/11 13:45:28;;;;;;;;;10.25;9.00;;;;;;;;5052014;28;45482;-75
2021/12/11 13:47:54;;;;;;;;;10.00;7.00;;;;;;;;5051672;28;45360;-78
2021/12/11 13:50:21;;;;;;;;;5.50;4.25;;;;;;;;5052321;28;45870;-78
2021/12/11 13:52:47;;;;;;;;;6.50;6.50;;;;;;;;5051627;28;46572;-73
2021/12/11 13:55:13;;;;;;;;;5.75;5.75;;;;;;;;5052369;28;45367;-75
2021/12/11 13:57:39;;;;;;;;;13.50;10.75;;;;;;;;5051917;28;45264;-76
2021/12/11 14:00:08;;;;;;;;;7.75;7.00;;;;;;;;5052592;28;45403;-76
2021/12/11 14:02:33;;;;;;;;;7.75;7.75;;;;;;;;5041061;28;45519;-77
2021/12/11 14:04:58;;;;;;;;;14.00;6.00;;;;;;;;5034450;28;45379;-75
2021/12/11 14:07:24;;;;;;;;;7.00;7.00;;;;;;;;5058989;28;45433;-76
2021/12/11 14:09:51;;;;;;;;;6.00;5.00;;;;;;;;5055585;28;45435;-78
2021/12/11 14:12:16;;;;;;;;;10.25;6.00;;;;;;;;5055710;28;46127;-78
2021/12/11 14:14:43;;;;;;;;;8.50;7.00;;;;;;;;5057477;28;45406;-77
2021/12/11 14:17:09;;;;;;;;;10.75;5.75;;;;;;;;5062412;28;45383;-78
2021/12/11 14:19:35;;;;;;;;;6.50;5.25;;;;;;;;5065391;28;45387;-77
2021/12/11 14:22:04;;;;;;;;;11.25;8.50;;;;;;;;5060104;28;45411;-80
2021/12/11 14:24:30;;;;;;;;;7.75;7.25;;;;;;;;5058205;28;45130;-78
2021/12/11 14:26:56;;;;;;;;;7.25;7.25;;;;;;;;5058809;28;45559;-77
2021/12/11 14:29:22;;;;;;;;;8.50;8.50;;;;;;;;5037413;28;45587;-76
2021/12/11 14:31:48;;;;;;;;;8.00;7.00;;;;;;;;5054748;28;45471;-77
2021/12/11 14:34:14;;;;;;;;;7.00;7.00;;;;;;;;5058223;28;45248;-78
2021/12/11 14:36:40;;;;;;;;;11.75;8.50;;;;;;;;5057136;28;45447;-78
2021/12/11 14:39:14;;;;;;;;;9.75;8.25;;;;;;;;5055422;28;45447;-78
2021/12/11 14:41:40;;;;;;;;;8.25;6.25;;;;;;;;5055619;28;46288;-77
2021/12/11 14:44:09;;;;;;;;;3.50;1.00;;;;;;;;5055586;28;45553;-76
2021/12/11 14:46:35;;;;;;;;;9.75;6.50;;;;;;;;5056447;28;45322;-78
2021/12/11 14:49:00;;;;;;;;;8.00;7.00;;;;;;;;5037831;28;45536;-78
2021/12/11 14:51:27;;;;;;;;;9.75;7.00;;;;;;;;5055071;28;46073;-78
2021/12/11 14:53:53;;;;;;;;;13.25;10.25;;;;;;;;5055241;28;45321;-77
2021/12/11 14:56:22;;;;;;;;;8.00;7.00;;;;;;;;5056300;28;45428;-77
2021/12/11 14:58:48;;;;;;;;;7.75;7.50;;;;;;;;5055539;28;45514;-77